createdAt,value
2022-07-26T00:01:01.127Z,49.18
2022-07-26T00:03:41.392Z,48.88
2022-07-26T00:06:34.645Z,48.96
2022-07-26T00:09:22.816Z,48.89
2022-07-26T00:12:03.473Z,48.61
2022-07-26T00:18:23.777Z,49.28
2022-07-26T00:21:16.757Z,48.94
2022-07-26T00:24:37.934Z,48.64
2022-07-26T00:27:10.171Z,48.44
2022-07-26T00:29:42.685Z,48.75
2022-07-26T00:32:12.614Z,48.70
2022-07-26T00:34:48.033Z,48.66
2022-07-26T00:37:21.351Z,48.36
2022-07-26T00:39:55.716Z,48.71
2022-07-26T00:42:28.649Z,48.65
2022-07-26T00:45:13.353Z,48.70
2022-07-26T00:47:52.501Z,48.84
2022-07-26T00:53:34.435Z,49.36
2022-07-26T00:56:22.452Z,49.16
2022-07-26T00:59:19.335Z,49.21
2022-07-26T01:02:16.179Z,49.67
2022-07-26T01:05:12.896Z,49.69
2022-07-26T01:07:47.327Z,49.77
2022-07-26T01:10:21.860Z,50.00
2022-07-26T01:13:02.100Z,50.05
2022-07-26T01:18:46.077Z,50.25
2022-07-26T01:21:18.251Z,50.36
2022-07-26T01:23:48.097Z,50.26
2022-07-26T01:26:26.845Z,50.65
2022-07-26T01:29:11.320Z,50.47
2022-07-26T01:31:47.161Z,50.59
2022-07-26T01:34:27.127Z,51.09
2022-07-26T01:37:16.787Z,50.92
2022-07-26T01:42:51.579Z,51.17
2022-07-26T01:45:43.084Z,51.06
2022-07-26T01:48:17.875Z,51.15
2022-07-26T01:50:56.969Z,51.51
2022-07-26T01:53:31.844Z,51.29
2022-07-26T01:56:26.490Z,51.77
2022-07-26T01:59:24.029Z,51.86
2022-07-26T02:01:58.821Z,51.94
2022-07-26T02:04:58.618Z,51.70
2022-07-26T02:07:44.757Z,52.04
2022-07-26T02:11:03.616Z,51.99
2022-07-26T02:13:57.721Z,52.15
2022-07-26T02:16:27.755Z,52.39
2022-07-26T02:19:01.938Z,52.63
2022-07-26T02:21:50.743Z,52.85
2022-07-26T02:24:27.440Z,52.87
2022-07-26T02:27:19.234Z,53.00
2022-07-26T02:30:04.008Z,53.04
2022-07-26T02:32:53.713Z,53.39
2022-07-26T02:35:28.015Z,53.41
2022-07-26T02:38:02.087Z,53.35
2022-07-26T02:40:51.179Z,53.27
2022-07-26T02:43:42.052Z,53.20
2022-07-26T02:46:31.831Z,53.10
2022-07-26T02:49:13.597Z,53.38
2022-07-26T02:51:48.603Z,53.37
2022-07-26T02:57:45.522Z,53.33
2022-07-26T03:00:44.469Z,53.32
2022-07-26T03:03:15.204Z,53.35
2022-07-26T03:05:48.217Z,53.39
2022-07-26T03:08:43.626Z,53.46
2022-07-26T03:11:30.090Z,53.47
2022-07-26T03:13:58.382Z,53.39
2022-07-26T03:16:30.748Z,53.45
2022-07-26T03:19:31.292Z,53.51
2022-07-26T03:28:10.174Z,53.87
2022-07-26T03:30:46.606Z,53.76
2022-07-26T03:33:34.433Z,53.79
2022-07-26T03:36:35.545Z,54.08
2022-07-26T03:42:35.221Z,54.09
2022-07-26T03:45:29.079Z,54.24
2022-07-26T03:48:02.515Z,54.02
2022-07-26T03:50:46.017Z,54.16
2022-07-26T03:53:31.668Z,54.22
2022-07-26T03:56:25.789Z,54.18
2022-07-26T03:59:08.560Z,54.15
2022-07-26T04:01:45.218Z,54.23
2022-07-26T04:04:18.565Z,54.21
2022-07-26T04:07:05.439Z,54.09
2022-07-26T04:09:41.567Z,54.21
2022-07-26T04:12:21.338Z,54.20
2022-07-26T04:15:34.527Z,54.55
2022-07-26T04:18:05.123Z,54.08
2022-07-26T04:20:36.967Z,53.95
2022-07-26T04:23:05.513Z,54.27
2022-07-26T04:25:52.190Z,54.17
2022-07-26T04:28:43.760Z,53.90
2022-07-26T04:31:13.794Z,53.84
2022-07-26T04:33:48.598Z,53.82
2022-07-26T04:36:23.806Z,54.08
2022-07-26T04:39:01.485Z,53.86
2022-07-26T04:41:32.295Z,54.01
2022-07-26T04:44:05.805Z,53.84
2022-07-26T04:46:49.322Z,53.96
2022-07-26T04:49:41.740Z,53.91
2022-07-26T04:52:36.861Z,54.10
2022-07-26T04:55:14.452Z,53.82
2022-07-26T04:57:47.339Z,53.60
2022-07-26T05:01:09.149Z,53.51
2022-07-26T05:03:39.973Z,53.39
2022-07-26T05:06:16.428Z,53.55
2022-07-26T05:08:45.858Z,53.43
2022-07-26T05:11:16.671Z,53.33
2022-07-26T05:13:46.614Z,53.02
2022-07-26T05:19:35.761Z,52.69
2022-07-26T05:22:08.046Z,52.66
2022-07-26T05:24:39.364Z,52.59
2022-07-26T05:27:20.217Z,52.71
2022-07-26T05:32:39.622Z,52.43
2022-07-26T05:35:17.917Z,52.12
2022-07-26T05:37:47.607Z,52.28
2022-07-26T05:40:16.358Z,52.07
2022-07-26T05:42:47.651Z,51.88
2022-07-26T05:45:21.568Z,51.54
2022-07-26T05:47:52.188Z,51.21
2022-07-26T05:50:21.346Z,51.15
2022-07-26T05:52:54.542Z,51.05
2022-07-26T05:55:35.547Z,51.06
2022-07-26T05:58:19.918Z,50.61
2022-07-26T06:00:54.308Z,50.64
2022-07-26T06:04:00.766Z,50.55
2022-07-26T06:06:45.095Z,50.44
2022-07-26T06:09:14.666Z,50.29
2022-07-26T06:11:48.864Z,50.52
2022-07-26T06:14:19.603Z,50.29
2022-07-26T06:20:27.769Z,49.77
2022-07-26T06:22:59.937Z,49.70
2022-07-26T06:25:30.654Z,49.21
2022-07-26T06:28:03.651Z,49.11
2022-07-26T06:30:32.662Z,49.09
2022-07-26T06:33:25.039Z,49.26
2022-07-26T06:36:08.318Z,49.11
2022-07-26T06:42:03.019Z,49.36
2022-07-26T06:44:34.127Z,49.12
2022-07-26T06:47:24.562Z,49.01
2022-07-26T06:53:05.445Z,48.82
2022-07-26T06:55:37.321Z,48.56
2022-07-26T06:58:14.230Z,48.10
2022-07-26T07:00:47.231Z,47.99
2022-07-26T07:03:23.455Z,46.76
2022-07-26T07:06:19.310Z,46.74
2022-07-26T07:08:56.410Z,46.24
2022-07-26T07:14:26.765Z,45.76
2022-07-26T07:17:16.032Z,45.35
2022-07-26T07:20:02.037Z,44.57
2022-07-26T07:22:35.039Z,44.51
2022-07-26T07:25:06.350Z,44.86
2022-07-26T07:31:00.148Z,44.32
2022-07-26T07:33:36.735Z,44.30
2022-07-26T07:36:27.769Z,44.05
2022-07-26T07:39:34.905Z,44.48
2022-07-26T07:42:27.086Z,45.29
2022-07-26T07:45:14.688Z,45.39
2022-07-26T07:47:57.672Z,45.41
2022-07-26T07:50:37.348Z,45.68
2022-07-26T07:53:12.470Z,45.46
2022-07-26T07:56:10.954Z,44.86
2022-07-26T07:58:48.912Z,44.37
2022-07-26T08:02:06.194Z,44.11
2022-07-26T08:08:02.125Z,44.37
2022-07-26T08:14:33.343Z,44.83
2022-07-26T08:17:43.088Z,44.70
2022-07-26T08:20:37.694Z,44.82
2022-07-26T08:26:58.833Z,45.29
2022-07-26T08:29:30.754Z,45.12
2022-07-26T08:32:33.333Z,45.37
2022-07-26T08:35:55.898Z,45.35
2022-07-26T08:38:38.283Z,44.87
2022-07-26T08:51:02.874Z,44.49
2022-07-26T08:54:23.067Z,43.98
2022-07-26T08:57:59.474Z,43.48
2022-07-26T09:01:50.387Z,43.16
2022-07-26T09:04:58.481Z,43.55
2022-07-26T09:08:42.545Z,43.53
2022-07-26T09:11:32.393Z,43.10
2022-07-26T09:14:09.768Z,43.13
2022-07-26T09:17:22.210Z,43.43
2022-07-26T09:21:06.799Z,43.14
2022-07-26T09:23:58.623Z,43.04
2022-07-26T09:27:11.929Z,42.60
2022-07-26T09:33:33.289Z,42.10
2022-07-26T09:36:15.261Z,41.78
2022-07-26T09:39:12.419Z,41.49
2022-07-26T09:42:29.058Z,41.26
2022-07-26T09:45:26.459Z,39.62
2022-07-26T09:48:06.633Z,39.88
2022-07-26T09:50:54.488Z,39.24
2022-07-26T09:53:40.008Z,39.34
2022-07-26T09:57:02.070Z,39.36
2022-07-26T09:59:34.904Z,39.60
2022-07-26T10:02:29.496Z,39.21
2022-07-26T10:05:35.363Z,38.59
2022-07-26T10:08:09.860Z,38.58
2022-07-26T10:14:41.616Z,38.22
2022-07-26T10:18:16.870Z,37.98
2022-07-26T10:21:38.054Z,38.09
2022-07-26T10:24:10.670Z,37.87
2022-07-26T10:26:46.916Z,38.24
2022-07-26T10:29:38.669Z,38.26
2022-07-26T10:32:41.704Z,37.53
2022-07-26T10:35:54.658Z,37.59
2022-07-26T10:38:32.340Z,37.53
2022-07-26T10:41:06.685Z,37.50
2022-07-26T10:47:00.637Z,37.55
2022-07-26T10:49:43.058Z,37.22
2022-07-26T11:01:45.679Z,36.51
2022-07-26T11:04:41.458Z,36.39
2022-07-26T11:07:29.162Z,36.63
2022-07-26T11:10:12.351Z,36.61
2022-07-26T11:12:56.402Z,35.96
2022-07-26T11:22:43.184Z,35.87
2022-07-26T11:26:13.024Z,35.13
2022-07-26T11:35:02.692Z,36.90
2022-07-26T11:37:41.259Z,37.13
2022-07-26T11:40:29.464Z,36.58
2022-07-26T11:42:58.003Z,37.10
2022-07-26T11:45:36.496Z,37.15
2022-07-26T12:37:14.196Z,35.91
2022-07-26T12:40:15.040Z,34.98
2022-07-26T12:43:49.215Z,35.50
2022-07-26T12:47:07.651Z,36.40
2022-07-26T12:54:02.812Z,36.81
2022-07-26T12:56:56.722Z,36.49
2022-07-26T13:07:20.625Z,35.99
2022-07-26T13:10:33.970Z,35.50
2022-07-26T13:31:45.331Z,34.44
2022-07-26T13:41:37.588Z,35.41
2022-07-26T13:44:28.876Z,35.25
2022-07-26T13:59:43.855Z,34.76
2022-07-26T14:13:34.645Z,35.61
2022-07-26T14:28:03.932Z,33.05
2022-07-26T14:34:56.404Z,34.30
2022-07-26T14:38:23.332Z,34.85
2022-07-26T14:48:02.732Z,35.23
2022-07-26T14:58:25.703Z,34.50
2022-07-26T15:01:45.633Z,35.08
2022-07-26T15:11:37.729Z,33.58
2022-07-26T15:15:35.163Z,33.07
2022-07-26T15:22:44.717Z,31.39
2022-07-26T15:25:39.442Z,32.07
2022-07-26T15:39:18.701Z,32.15
2022-07-26T15:46:26.004Z,31.17
2022-07-26T15:49:50.513Z,30.25
2022-07-26T15:53:25.385Z,29.28
2022-07-26T15:56:30.236Z,28.88
2022-07-26T16:02:21.370Z,29.67
2022-07-26T16:08:21.906Z,29.21
2022-07-26T16:11:01.304Z,29.32
2022-07-26T16:13:34.272Z,27.63
2022-07-26T16:16:21.434Z,27.22
2022-07-26T16:19:55.552Z,27.71
2022-07-26T16:23:22.832Z,25.82
2022-07-26T16:26:15.880Z,26.64
2022-07-26T16:36:56.015Z,26.60
2022-07-26T16:47:20.124Z,28.30
2022-07-26T16:50:07.412Z,28.71
2022-07-26T16:57:16.996Z,29.17
2022-07-26T17:00:43.445Z,28.82
2022-07-26T17:03:22.070Z,29.67
2022-07-26T17:09:37.868Z,30.04
2022-07-26T17:16:09.133Z,29.72
2022-07-26T17:22:36.201Z,29.69
2022-07-26T17:32:29.104Z,29.94
2022-07-26T17:35:10.670Z,30.21
2022-07-26T17:38:15.516Z,30.47
2022-07-26T17:41:32.490Z,30.86
2022-07-26T17:44:10.898Z,30.44
2022-07-26T17:47:28.779Z,30.18
2022-07-26T17:57:16.035Z,30.33
2022-07-26T18:00:06.737Z,30.29
2022-07-26T18:02:56.103Z,31.10
2022-07-26T18:06:20.525Z,31.10
2022-07-26T18:13:11.563Z,31.59
2022-07-26T18:27:47.286Z,32.00
2022-07-26T18:30:20.234Z,31.82
2022-07-26T18:33:40.012Z,32.10
2022-07-26T18:37:03.264Z,32.48
2022-07-26T18:40:05.156Z,32.96
2022-07-26T18:43:01.131Z,33.36
2022-07-26T18:45:39.156Z,34.09
2022-07-26T18:48:24.128Z,34.39
2022-07-26T18:54:30.483Z,35.07
2022-07-26T18:57:08.104Z,35.63
2022-07-26T19:06:09.283Z,37.12
2022-07-26T19:08:50.202Z,37.19
2022-07-26T19:11:44.202Z,37.76
2022-07-26T19:14:38.662Z,37.82
2022-07-26T19:24:17.675Z,39.30
2022-07-26T19:27:47.511Z,39.64
2022-07-26T19:33:29.406Z,39.87
2022-07-26T19:36:33.310Z,39.84
2022-07-26T19:39:06.714Z,40.46
2022-07-26T19:41:57.754Z,40.81
2022-07-26T19:48:10.069Z,41.19
2022-07-26T19:54:34.050Z,41.15
2022-07-26T19:57:35.502Z,41.34
2022-07-26T20:04:07.646Z,41.97
2022-07-26T20:07:15.267Z,42.16
2022-07-26T20:10:36.344Z,42.36
2022-07-26T20:13:26.280Z,42.33
2022-07-26T20:27:25.773Z,42.86
2022-07-26T20:36:44.710Z,43.22
2022-07-26T20:39:15.252Z,43.21
2022-07-26T20:42:03.086Z,43.20
2022-07-26T20:56:02.476Z,43.54
2022-07-26T21:05:22.940Z,44.09
2022-07-26T21:11:32.593Z,44.18
2022-07-26T21:17:53.216Z,44.71
2022-07-26T21:20:25.602Z,44.81
2022-07-26T21:23:22.065Z,44.88
2022-07-26T21:25:58.053Z,44.82
2022-07-26T21:28:56.099Z,45.01
2022-07-26T21:31:44.405Z,44.99
2022-07-26T21:38:19.798Z,45.21
2022-07-26T21:41:35.264Z,45.37
2022-07-26T21:47:07.744Z,45.41
2022-07-26T21:50:11.736Z,45.44
2022-07-26T21:53:19.141Z,45.50
2022-07-26T21:55:55.076Z,45.49
2022-07-26T21:58:42.031Z,45.36
2022-07-26T22:01:48.396Z,45.47
2022-07-26T22:04:19.056Z,45.65
2022-07-26T22:06:48.525Z,45.53
2022-07-26T22:13:01.934Z,45.57
2022-07-26T22:22:21.438Z,45.72
2022-07-26T22:31:26.017Z,45.94
2022-07-26T22:34:12.384Z,45.89
2022-07-26T22:36:57.892Z,45.89
2022-07-26T22:39:31.511Z,45.85
2022-07-26T22:45:11.733Z,45.94
2022-07-26T22:48:07.813Z,45.86
2022-07-26T22:51:05.048Z,46.17
2022-07-26T22:54:01.136Z,46.11
2022-07-26T22:59:42.726Z,46.36
2022-07-26T23:02:38.575Z,46.28
2022-07-26T23:05:45.372Z,46.34
2022-07-26T23:08:45.862Z,46.36
2022-07-26T23:11:21.605Z,46.49
2022-07-26T23:17:46.607Z,46.63
2022-07-26T23:20:26.068Z,46.52
2022-07-26T23:26:05.513Z,46.71
2022-07-26T23:29:17.665Z,46.61
2022-07-26T23:31:56.989Z,46.79
2022-07-26T23:34:28.213Z,46.74
2022-07-26T23:36:59.796Z,46.83
2022-07-26T23:39:42.310Z,46.85
2022-07-26T23:42:25.383Z,46.94
2022-07-26T23:45:20.265Z,46.87
2022-07-26T23:47:55.217Z,47.04
2022-07-26T23:50:29.583Z,47.30
2022-07-26T23:53:01.267Z,47.13
2022-07-26T23:55:35.586Z,47.27
2022-07-26T23:58:17.243Z,46.99
